Time;durP1;ratioP1;P1;durP2;ratioP2;P2;SDS_P1;SDS_P2;PMS_P1;PMS_P2;Temp;Humidity;BMP_temperature;BMP_pressure;BME280_temperature;BME280_humidity;BME280_pressure;Samples;Min_cycle;Max_cycle;Signal;HPM_P1;HPM_P2
2021/04/02 10:04:50;;;;;;;10.98;3.10;;;;;;;;;;5097312;27;20482;-64
2021/04/02 10:07:17;;;;;;;15.80;3.05;;;20.80;19.10;;;;;;5118847;28;20110;-63
2021/04/02 10:09:43;;;;;;;14.52;3.30;;;20.90;19.60;;;;;;5104162;28;20133;-61
2021/04/02 10:12:10;;;;;;;13.05;3.35;;;20.70;19.90;;;;;;5124635;27;20126;-61
2021/04/02 10:14:37;;;;;;;15.35;3.03;;;20.60;20.10;;;;;;5123191;28;20111;-63
2021/04/02 10:17:09;;;;;;;10.63;3.30;;;20.50;20.10;;;;;;5103904;28;20072;-64
2021/04/02 10:19:35;;;;;;;20.75;3.10;;;20.40;20.20;;;;;;5123385;27;20068;-62
2021/04/02 10:22:02;;;;;;;10.38;2.70;;;20.40;20.30;;;;;;5123793;27;20089;-62
2021/04/02 10:24:29;;;;;;;11.68;3.47;;;20.30;20.30;;;;;;5122416;27;20098;-62
2021/04/02 10:26:57;;;;;;;19.02;3.88;;;20.30;32.10;;;;;;5125052;28;20447;-62
2021/04/02 10:29:23;;;;;;;20.45;3.25;;;20.10;20.50;;;;;;5121936;28;20155;-62
2021/04/02 10:31:50;;;;;;;17.15;2.95;;;20.10;20.70;;;;;;5121823;27;20072;-64
2021/04/02 10:34:17;;;;;;;13.63;3.03;;;20.00;20.50;;;;;;5103205;28;20100;-63
2021/04/02 10:36:43;;;;;;;17.52;3.38;;;20.00;20.50;;;;;;5110331;28;20130;-63
2021/04/02 10:39:10;;;;;;;14.10;2.95;;;20.00;21.10;;;;;;5108710;28;20072;-62
2021/04/02 10:41:38;;;;;;;14.25;2.97;;;19.90;21.00;;;;;;5125149;28;20125;-63
2021/04/02 10:44:05;;;;;;;15.00;3.38;;;19.90;21.10;;;;;;5124475;27;20193;-64
2021/04/02 10:46:32;;;;;;;18.38;3.10;;;19.80;20.90;;;;;;5120672;27;20069;-64
2021/04/02 10:48:59;;;;;;;15.93;3.30;;;19.80;21.30;;;;;;5123681;28;20162;-59
2021/04/02 10:51:25;;;;;;;;;;;19.90;21.80;;;;;;5125070;28;20119;-61
2021/04/02 10:54:00;;;;;;;17.95;3.50;;;19.80;21.50;;;;;;5124541;27;20030;-64
2021/04/02 10:56:31;;;;;;;9.00;2.80;;;19.70;21.20;;;;;;5122370;27;20151;-65
2021/04/02 10:58:58;;;;;;;14.40;3.17;;;19.60;20.80;;;;;;5139914;27;20416;-62
2021/04/02 11:01:25;;;;;;;17.77;2.92;;;19.50;21.20;;;;;;5106423;28;20084;-63
2021/04/02 11:03:52;;;;;;;19.52;3.03;;;19.50;21.20;;;;;;5123682;28;20127;-63
2021/04/02 11:06:19;;;;;;;14.10;3.22;;;19.50;20.50;;;;;;5121892;28;20079;-62
2021/04/02 11:08:45;;;;;;;10.40;2.60;;;19.50;20.40;;;;;;5124198;28;20076;-62
2021/04/02 11:11:12;;;;;;;15.65;3.25;;;19.50;20.90;;;;;;5107710;28;20076;-63
2021/04/02 11:13:39;;;;;;;14.95;2.85;;;19.50;20.80;;;;;;5123424;28;20508;-61
2021/04/02 11:16:06;;;;;;;13.75;3.30;;;19.50;20.80;;;;;;5111353;28;20423;-63
2021/04/02 11:18:33;;;;;;;14.93;3.08;;;19.50;20.90;;;;;;5111936;28;20072;-62
2021/04/02 11:20:59;;;;;;;8.23;2.60;;;19.60;21.00;;;;;;5110972;28;20114;-61
2021/04/02 11:23:26;;;;;;;22.35;3.88;;;19.60;20.60;;;;;;5108293;27;20100;-63
2021/04/02 11:25:54;;;;;;;17.05;3.38;;;19.70;21.20;;;;;;5109614;27;20127;-64
2021/04/02 11:28:21;;;;;;;16.77;2.88;;;19.60;20.40;;;;;;5107438;28;20448;-63
2021/04/02 11:30:47;;;;;;;18.65;3.08;;;19.60;20.30;;;;;;5104342;28;20133;-61
2021/04/02 11:33:14;;;;;;;10.93;2.92;;;19.60;20.30;;;;;;5088217;28;20084;-62
2021/04/02 11:35:40;;;;;;;;;;;19.60;20.10;;;;;;5108511;27;20068;-64
2021/04/02 11:38:07;;;;;;;15.50;3.33;;;19.60;19.90;;;;;;5111400;27;19964;-63
2021/04/02 11:40:34;;;;;;;11.93;2.70;;;19.60;20.00;;;;;;5107360;28;20064;-63
2021/04/02 11:43:00;;;;;;;15.70;2.83;;;19.60;19.80;;;;;;5093386;28;20567;-64
2021/04/02 11:45:27;;;;;;;10.18;2.53;;;19.60;19.90;;;;;;5106166;28;20187;-62
2021/04/02 11:47:54;;;;;;;18.48;2.85;;;19.60;20.00;;;;;;5087991;28;20535;-64
2021/04/02 11:50:21;;;;;;;10.07;2.33;;;19.60;19.50;;;;;;5105551;28;20068;-64
2021/04/02 11:52:47;;;;;;;18.00;2.50;;;19.60;19.90;;;;;;5105426;28;20069;-64
2021/04/02 11:55:15;;;;;;;13.55;2.33;;;19.60;19.00;;;;;;5106469;28;20076;-64
2021/04/02 11:57:41;;;;;;;14.57;2.80;;;19.60;19.40;;;;;;5110006;28;20568;-64
2021/04/02 12:00:11;;;;;;;13.25;3.00;;;19.70;19.40;;;;;;5106879;27;20820;-64
2021/04/02 12:02:37;;;;;;;17.98;2.75;;;19.70;18.80;;;;;;5107030;28;20121;-63
2021/04/02 12:05:06;;;;;;;12.93;2.83;;;19.70;19.30;;;;;;5103559;28;20068;-63
2021/04/02 12:07:32;;;;;;;17.65;2.85;;;19.70;19.20;;;;;;5108814;28;20096;-63
2021/04/02 12:09:59;;;;;;;15.27;2.40;;;19.70;18.60;;;;;;5107200;28;20084;-65
2021/04/02 12:12:26;;;;;;;12.90;3.17;;;19.70;19.00;;;;;;5106333;28;20091;-64
2021/04/02 12:14:53;;;;;;;18.15;2.95;;;19.60;18.90;;;;;;5109858;27;20141;-63
2021/04/02 12:17:19;;;;;;;10.38;2.53;;;19.70;19.00;;;;;;5107581;28;20117;-63
2021/04/02 12:19:46;;;;;;;11.27;2.40;;;19.70;18.40;;;;;;5105035;28;20103;-64
2021/04/02 12:22:12;;;;;;;8.18;2.70;;;19.70;18.40;;;;;;5107540;28;20083;-63
2021/04/02 12:24:39;;;;;;;11.75;3.05;;;19.70;18.90;;;;;;5109476;27;20127;-62
2021/04/02 12:27:06;;;;;;;15.32;2.58;;;19.70;18.90;;;;;;5108119;28;20129;-66
2021/04/02 12:29:34;;;;;;;15.60;3.13;;;19.70;18.80;;;;;;5090537;28;20202;-63
2021/04/02 12:32:03;;;;;;;9.95;2.90;;;19.70;18.70;;;;;;5087855;28;20099;-63
2021/04/02 12:34:30;;;;;;;11.52;2.67;;;19.80;18.60;;;;;;5108981;28;20505;-63
2021/04/02 12:36:56;;;;;;;13.32;3.22;;;19.80;18.50;;;;;;5106726;28;20206;-63
2021/04/02 12:39:23;;;;;;;11.13;3.13;;;19.90;18.30;;;;;;5105838;28;20068;-63
2021/04/02 12:41:49;;;;;;;8.20;2.55;;;20.00;17.60;;;;;;5106691;28;20107;-63
2021/04/02 12:44:16;;;;;;;15.70;2.92;;;20.00;18.20;;;;;;5106942;28;20103;-62
2021/04/02 12:46:42;;;;;;;9.65;2.83;;;20.00;18.60;;;;;;5103117;28;20073;-63
2021/04/02 12:49:09;;;;;;;9.98;2.60;;;19.90;18.30;;;;;;5093852;28;20068;-64
2021/04/02 12:51:35;;;;;;;14.85;3.15;;;19.90;18.40;;;;;;5109140;27;20531;-63
2021/04/02 12:54:02;;;;;;;15.68;3.15;;;19.90;18.90;;;;;;5106488;27;20076;-64
2021/04/02 12:56:29;;;;;;;12.90;2.85;;;19.90;18.40;;;;;;5107975;28;20075;-64
2021/04/02 12:58:55;;;;;;;14.93;2.70;;;19.80;18.30;;;;;;5108330;27;20068;-64
2021/04/02 13:01:23;;;;;;;16.23;3.00;;;19.90;18.60;;;;;;5109258;28;20072;-65
2021/04/02 13:03:49;;;;;;;20.33;3.80;;;19.90;18.70;;;;;;5106127;28;20169;-64
2021/04/02 13:06:16;;;;;;;13.10;4.05;;;19.90;18.60;;;;;;5104611;28;20069;-65
2021/04/02 13:08:43;;;;;;;14.02;3.97;;;19.90;18.20;;;;;;5104905;28;20084;-63
2021/04/02 13:11:09;;;;;;;18.17;5.60;;;20.00;18.30;;;;;;5108076;28;20480;-65
2021/04/02 13:13:36;;;;;;;19.58;6.47;;;20.00;18.80;;;;;;5106487;28;20076;-65
2021/04/02 13:16:03;;;;;;;19.27;6.65;;;19.90;19.10;;;;;;5104250;28;20159;-64
2021/04/02 13:18:30;;;;;;;23.13;6.13;;;19.90;18.50;;;;;;5106400;28;20080;-62
2021/04/02 13:20:56;;;;;;;17.45;4.28;;;19.80;18.30;;;;;;5107513;28;20435;-62
2021/04/02 13:23:23;;;;;;;13.23;3.67;;;19.80;18.20;;;;;;5107244;28;20096;-65
2021/04/02 13:25:49;;;;;;;14.20;3.72;;;19.90;18.00;;;;;;5105092;28;20397;-64
2021/04/02 13:28:16;;;;;;;12.50;3.80;;;20.00;18.30;;;;;;5105088;28;20072;-63
2021/04/02 13:30:43;;;;;;;8.20;2.90;;;20.00;18.50;;;;;;5106251;28;20083;-63
2021/04/02 13:33:11;;;;;;;21.52;3.42;;;19.90;18.50;;;;;;5104282;28;20601;-64
2021/04/02 13:35:38;;;;;;;15.52;4.03;;;19.90;19.00;;;;;;5090092;28;20129;-63
2021/04/02 13:38:05;;;;;;;14.43;3.65;;;19.90;19.30;;;;;;5086174;28;20099;-65
2021/04/02 13:40:31;;;;;;;16.40;3.53;;;19.90;19.10;;;;;;5105977;28;20075;-63
2021/04/02 13:43:00;;;;;;;22.90;3.25;;;19.80;19.50;;;;;;5085901;28;20098;-63
2021/04/02 13:45:27;;;;;;;16.40;3.30;;;19.80;22.10;;;;;;5109476;28;20096;-64
2021/04/02 13:47:54;;;;;;;15.55;3.55;;;19.70;22.00;;;;;;5088936;28;20075;-65
2021/04/02 13:50:28;;;;;;;15.50;4.65;;;19.60;22.30;;;;;;5107225;28;20072;-63
2021/04/02 13:52:55;;;;;;;21.00;4.40;;;19.50;21.90;;;;;;5108070;28;20117;-63
2021/04/02 13:55:24;;;;;;;29.17;5.13;;;19.40;21.10;;;;;;5108547;28;20080;-63
2021/04/02 13:57:51;;;;;;;21.48;5.10;;;19.40;21.20;;;;;;5108944;28;20581;-63
2021/04/02 14:00:20;;;;;;;24.25;4.35;;;19.40;20.70;;;;;;5089475;28;20126;-63
2021/04/02 14:02:47;;;;;;;28.73;4.70;;;19.40;22.00;;;;;;5105590;28;21717;-65
2021/04/02 14:05:16;;;;;;;38.97;5.57;;;19.30;23.60;;;;;;5106715;28;20113;-63
2021/04/02 14:07:43;;;;;;;32.25;5.90;;;19.20;22.50;;;;;;5107288;28;20099;-62
2021/04/02 14:10:20;;;;;;;28.55;5.32;;;19.30;22.60;;;;;;5106980;28;20087;-64
2021/04/02 14:12:48;;;;;;;28.77;5.35;;;19.30;22.40;;;;;;5092104;28;20443;-63
2021/04/02 14:15:18;;;;;;;39.88;6.32;;;19.30;22.70;;;;;;5105218;28;20077;-64
2021/04/02 14:17:44;;;;;;;42.78;6.53;;;19.30;24.90;;;;;;5107548;28;20060;-62
2021/04/02 14:20:19;;;;;;;49.72;8.52;;;19.30;25.50;;;;;;5106953;28;20101;-64
2021/04/02 14:22:46;;;;;;;58.67;11.23;;;19.30;24.10;;;;;;5107110;28;20076;-63
2021/04/02 14:25:14;;;;;;;66.50;13.88;;;19.30;24.00;;;;;;5097456;28;20085;-64
2021/04/02 14:27:41;;;;;;;66.05;16.38;;;19.30;23.70;;;;;;5098760;28;20084;-63
2021/04/02 14:30:15;;;;;;;70.10;17.08;;;19.30;23.90;;;;;;5089183;28;20084;-64
2021/04/02 14:32:41;;;;;;;69.78;20.05;;;19.40;24.10;;;;;;5108274;28;20122;-61
2021/04/02 14:35:10;;;;;;;74.22;19.40;;;19.40;24.00;;;;;;5104891;28;20079;-63
2021/04/02 14:37:38;;;;;;;81.63;19.75;;;19.50;24.00;;;;;;5103716;28;20073;-61
2021/04/02 14:40:17;;;;;;;80.47;20.00;;;19.50;25.10;;;;;;5102078;28;20122;-64
2021/04/02 14:42:44;;;;;;;88.28;21.15;;;19.70;24.80;;;;;;5099192;28;20078;-64
2021/04/02 14:45:12;;;;;;;75.68;19.83;;;19.80;24.80;;;;;;5088361;28;21215;-63
2021/04/02 14:47:39;;;;;;;105.18;24.30;;;19.80;24.90;;;;;;5104232;28;20139;-63
2021/04/02 14:50:08;;;;;;;102.95;22.75;;;19.90;26.00;;;;;;5108738;28;20076;-63
2021/04/02 14:52:35;;;;;;;92.55;23.35;;;20.00;26.00;;;;;;5115056;28;20528;-60
2021/04/02 14:55:04;;;;;;;81.50;22.45;;;20.00;26.00;;;;;;5113560;28;20088;-60
2021/04/02 14:57:34;;;;;;;109.40;24.00;;;20.10;26.30;;;;;;5097551;28;20118;-57
2021/04/02 15:00:04;;;;;;;106.28;25.75;;;20.30;26.50;;;;;;5109357;28;20064;-62
2021/04/02 15:02:31;;;;;;;106.28;25.00;;;20.40;26.20;;;;;;5094092;28;20167;-61
2021/04/02 15:04:59;;;;;;;100.72;25.00;;;20.50;26.70;;;;;;5111558;28;20608;-63
2021/04/02 15:07:25;;;;;;;88.53;23.92;;;20.60;26.70;;;;;;5111951;27;20071;-62
2021/04/02 15:12:31;;;;;;;101.03;24.38;;;20.80;27.40;;;;;;5113694;27;20454;-64
2021/04/02 15:14:58;;;;;;;109.57;25.40;;;21.00;27.70;;;;;;5117336;28;20106;-64
2021/04/02 15:17:25;;;;;;;94.47;24.80;;;21.20;27.50;;;;;;5098353;28;20098;-64
2021/04/02 15:19:53;;;;;;;77.07;22.67;;;21.30;27.50;;;;;;5111611;28;20117;-64
2021/04/02 15:22:20;;;;;;;71.75;22.20;;;21.50;27.20;;;;;;5096347;28;20101;-63
2021/04/02 15:24:47;;;;;;;90.80;20.55;;;21.70;27.60;;;;;;5114777;28;20529;-63
2021/04/02 15:27:14;;;;;;;62.22;17.55;;;21.90;27.40;;;;;;5111053;28;20107;-63
2021/04/02 15:29:41;;;;;;;60.50;14.95;;;22.10;28.20;;;;;;5112778;28;20151;-63
2021/04/02 15:32:08;;;;;;;56.85;14.35;;;22.30;28.60;;;;;;5115683;28;20565;-64
2021/04/02 15:34:37;;;;;;;51.83;14.25;;;22.50;28.80;;;;;;5115199;28;20484;-62
2021/04/02 15:37:07;;;;;;;56.67;14.02;;;22.70;28.90;;;;;;5107905;28;20076;-64
2021/04/02 15:39:35;;;;;;;46.20;13.68;;;22.80;28.00;;;;;;5113001;28;20634;-64
2021/04/02 15:42:02;;;;;;;53.47;15.02;;;23.00;26.60;;;;;;5115243;28;20147;-65
2021/04/02 15:44:28;;;;;;;58.88;14.90;;;23.20;25.80;;;;;;5114997;28;20073;-65
2021/04/02 15:46:55;;;;;;;60.42;15.38;;;23.40;25.50;;;;;;5112287;28;20490;-64
2021/04/02 15:49:21;;;;;;;51.55;15.38;;;23.60;25.10;;;;;;5114579;28;20106;-62
2021/04/02 15:51:48;;;;;;;49.15;15.57;;;23.80;24.60;;;;;;5111769;28;20530;-64
2021/04/02 15:54:15;;;;;;;49.75;14.52;;;24.00;23.50;;;;;;5117922;28;20075;-63
2021/04/02 15:56:43;;;;;;;59.88;14.43;;;24.20;22.80;;;;;;5111892;28;20130;-65
2021/04/02 15:59:09;;;;;;;53.88;15.18;;;24.60;22.60;;;;;;5114018;28;20489;-64
2021/04/02 16:01:36;;;;;;;53.92;16.70;;;24.90;22.20;;;;;;5092746;28;20129;-65
2021/04/02 16:04:03;;;;;;;60.38;15.98;;;25.20;22.50;;;;;;5093837;28;20071;-64
2021/04/02 16:06:33;;;;;;;63.15;15.77;;;25.50;21.90;;;;;;5115383;28;20096;-65
2021/04/02 16:09:00;;;;;;;62.83;15.55;;;25.90;22.00;;;;;;5111221;28;20079;-65
2021/04/02 16:11:26;;;;;;;57.30;16.85;;;26.00;21.30;;;;;;5111712;28;20191;-64
2021/04/02 16:13:53;;;;;;;58.10;17.85;;;26.50;21.40;;;;;;5116396;28;20068;-64
2021/04/02 16:16:22;;;;;;;55.40;16.88;;;26.90;21.30;;;;;;5095941;28;20065;-64
2021/04/02 16:18:48;;;;;;;60.80;15.55;;;27.40;21.50;;;;;;5114730;28;20109;-65
2021/04/02 16:21:15;;;;;;;44.80;15.50;;;27.60;20.60;;;;;;5093740;28;20114;-65
2021/04/02 16:23:41;;;;;;;52.40;15.15;;;27.90;20.50;;;;;;5099608;28;20072;-63
2021/04/02 16:26:08;;;;;;;61.47;15.85;;;28.30;20.30;;;;;;5095525;28;20084;-65
2021/04/02 16:28:34;;;;;;;41.75;13.65;;;28.60;20.10;;;;;;5095057;28;20432;-66
2021/04/02 16:31:01;;;;;;;43.05;12.32;;;28.70;20.00;;;;;;5096032;28;20564;-66
2021/04/02 16:33:28;;;;;;;46.78;11.73;;;29.20;20.30;;;;;;5099221;28;20076;-63
2021/04/02 16:35:55;;;;;;;43.70;11.07;;;29.60;20.00;;;;;;5097978;28;20173;-63
2021/04/02 16:38:21;;;;;;;81.57;14.38;;;29.40;20.20;;;;;;5094286;28;20541;-63
2021/04/02 16:40:48;;;;;;;50.58;10.65;;;29.80;25.50;;;;;;5098883;28;20444;-65
2021/04/02 16:43:15;;;;;;;32.50;8.85;;;30.10;22.80;;;;;;5095093;28;20111;-66
2021/04/02 16:45:42;;;;;;;37.25;8.60;;;30.40;20.00;;;;;;5099986;28;20113;-66
2021/04/02 16:48:09;;;;;;;45.33;9.10;;;30.60;22.20;;;;;;5101127;28;20065;-65
2021/04/02 16:50:35;;;;;;;41.78;9.77;;;30.50;21.20;;;;;;5080732;28;20098;-65
2021/04/02 16:53:02;;;;;;;35.40;7.85;;;31.10;19.70;;;;;;5093912;28;20544;-65
2021/04/02 16:55:28;;;;;;;40.95;8.05;;;31.10;19.20;;;;;;5101144;28;20079;-64
2021/04/02 16:57:55;;;;;;;39.33;8.57;;;31.20;19.40;;;;;;5081088;28;20091;-65
2021/04/02 17:00:22;;;;;;;35.42;8.15;;;31.40;19.20;;;;;;5094527;28;20190;-64
2021/04/02 17:02:49;;;;;;;36.50;9.23;;;31.60;19.40;;;;;;5095993;28;20071;-65
2021/04/02 17:05:17;;;;;;;38.05;9.25;;;31.80;18.90;;;;;;5081728;28;20064;-65
2021/04/02 17:07:44;;;;;;;39.00;9.40;;;32.10;18.90;;;;;;5081103;28;21323;-64
2021/04/02 17:10:12;;;;;;;48.78;9.35;;;32.60;18.10;;;;;;5094852;28;20505;-64
2021/04/02 17:12:40;;;;;;;52.60;10.13;;;33.80;19.40;;;;;;5096459;28;20159;-64
2021/04/02 17:15:08;;;;;;;40.45;8.52;;;33.20;18.50;;;;;;5096522;28;20201;-64
2021/04/02 17:17:35;;;;;;;42.67;9.88;;;33.40;16.90;;;;;;5082446;28;20079;-64
2021/04/02 17:20:06;;;;;;;37.25;9.80;;;33.40;17.10;;;;;;5079471;28;20168;-63
2021/04/02 17:22:32;;;;;;;41.47;9.07;;;33.80;16.40;;;;;;5100337;28;20068;-63
2021/04/02 17:24:59;;;;;;;43.85;9.25;;;33.90;15.30;;;;;;5097522;28;20114;-64
2021/04/02 17:27:25;;;;;;;44.33;10.40;;;33.90;15.30;;;;;;5093722;28;20578;-64
2021/04/02 17:29:52;;;;;;;56.35;10.73;;;34.10;15.70;;;;;;5094421;28;20073;-64
2021/04/02 17:32:18;;;;;;;44.70;9.68;;;34.10;15.70;;;;;;5075122;28;20137;-65
2021/04/02 17:34:45;;;;;;;34.15;9.63;;;34.50;15.80;;;;;;5097190;28;20593;-66
2021/04/02 17:37:12;;;;;;;42.22;10.30;;;34.80;16.40;;;;;;5097679;28;20084;-65
2021/04/02 17:39:38;;;;;;;45.55;10.82;;;35.40;15.10;;;;;;5079434;28;20159;-64
2021/04/02 17:42:05;;;;;;;41.47;11.23;;;35.40;15.20;;;;;;5099072;28;20166;-64
2021/04/02 17:44:32;;;;;;;37.30;10.23;;;35.70;15.80;;;;;;5101027;28;20081;-65
2021/04/02 17:47:00;;;;;;;33.67;9.55;;;36.30;14.70;;;;;;5097435;28;20499;-64
2021/04/02 17:49:27;;;;;;;43.55;9.05;;;36.30;13.70;;;;;;5100695;28;20069;-64
2021/04/02 17:51:54;;;;;;;47.58;10.18;;;36.50;13.30;;;;;;5093775;28;20101;-65
2021/04/02 17:54:21;;;;;;;42.17;9.75;;;36.30;13.10;;;;;;5094152;28;20095;-65
2021/04/02 17:56:48;;;;;;;36.40;7.97;;;36.30;13.40;;;;;;5080490;28;20072;-65
2021/04/02 17:59:15;;;;;;;26.40;6.70;;;36.10;12.60;;;;;;5098080;28;20206;-64
2021/04/02 18:01:41;;;;;;;28.90;6.68;;;35.70;11.40;;;;;;5099340;28;20525;-65
2021/04/02 18:04:08;;;;;;;39.17;7.47;;;36.40;10.80;;;;;;5094097;28;20073;-65
2021/04/02 18:06:35;;;;;;;23.42;6.28;;;36.60;11.10;;;;;;5075326;28;20104;-64
2021/04/02 18:09:02;;;;;;;17.80;5.53;;;36.50;11.00;;;;;;5097725;28;20576;-64
2021/04/02 18:11:28;;;;;;;19.88;5.68;;;36.50;10.40;;;;;;5093869;28;20472;-65
2021/04/02 18:13:55;;;;;;;42.03;6.07;;;36.80;10.10;;;;;;5093192;28;20060;-65
2021/04/02 18:16:21;;;;;;;21.45;5.47;;;37.10;10.20;;;;;;5079102;28;20162;-63
2021/04/02 18:18:48;;;;;;;28.23;6.28;;;36.80;10.10;;;;;;5096485;28;20108;-64
2021/04/02 18:21:14;;;;;;;25.80;6.60;;;37.20;10.80;;;;;;5079660;28;20425;-65
2021/04/02 18:23:41;;;;;;;27.95;5.80;;;37.10;9.80;;;;;;5077190;28;20068;-64
2021/04/02 18:26:08;;;;;;;31.80;5.90;;;37.00;10.20;;;;;;5100829;28;20076;-64
2021/04/02 18:28:34;;;;;;;29.23;6.20;;;36.90;10.60;;;;;;5080145;28;20073;-67
2021/04/02 18:31:01;;;;;;;22.50;5.07;;;36.30;9.80;;;;;;5094822;28;20180;-64
2021/04/02 18:33:28;;;;;;;17.25;5.20;;;35.90;10.00;;;;;;5083533;28;20598;-68
2021/04/02 18:35:54;;;;;;;32.08;5.88;;;36.80;17.30;;;;;;5091539;28;20089;-65
2021/04/02 18:38:21;;;;;;;60.13;6.95;;;36.80;9.90;;;;;;5098105;28;20073;-64
2021/04/02 18:40:49;;;;;;;22.05;4.95;;;37.10;10.00;;;;;;5095000;28;20500;-65
2021/04/02 18:43:17;;;;;;;31.77;5.82;;;37.30;8.90;;;;;;5076821;28;20716;-67
2021/04/02 18:45:43;;;;;;;20.02;4.97;;;36.90;9.60;;;;;;5095949;28;20177;-63
2021/04/02 18:48:10;;;;;;;16.42;4.78;;;37.20;10.90;;;;;;5080981;28;20512;-61
2021/04/02 18:50:37;;;;;;;14.23;4.35;;;37.40;10.80;;;;;;5099183;28;20606;-70
2021/04/02 18:53:04;;;;;;;28.05;5.53;;;36.50;10.30;;;;;;5076826;28;20095;-69
2021/04/02 18:55:30;;;;;;;34.40;6.10;;;36.20;11.50;;;;;;5081482;28;20533;-66
2021/04/02 18:57:57;;;;;;;18.58;5.03;;;36.20;10.60;;;;;;5097599;28;20076;-67
2021/04/02 19:00:24;;;;;;;20.67;5.10;;;35.70;12.00;;;;;;5094866;28;20083;-68
2021/04/02 19:02:52;;;;;;;19.45;5.40;;;35.60;12.80;;;;;;5095309;28;20073;-66
2021/04/02 19:05:19;;;;;;;21.48;5.00;;;35.20;10.60;;;;;;5100649;28;20068;-67
2021/04/02 19:07:46;;;;;;;14.35;5.00;;;35.50;10.60;;;;;;5098145;28;20100;-65
2021/04/02 19:10:14;;;;;;;24.08;4.68;;;35.60;11.40;;;;;;5097525;28;20578;-67
2021/04/02 19:12:40;;;;;;;17.95;4.97;;;35.90;17.60;;;;;;5084076;28;20461;-67
2021/04/02 19:15:09;;;;;;;20.02;5.20;;;35.50;12.30;;;;;;5095221;28;20098;-65
2021/04/02 19:17:39;;;;;;;21.55;5.60;;;35.90;9.70;;;;;;5094311;28;20155;-66
2021/04/02 19:20:08;;;;;;;20.08;4.85;;;36.00;12.10;;;;;;5095335;28;20102;-65
2021/04/02 19:22:35;;;;;;;17.50;4.25;;;36.00;10.00;;;;;;5092616;28;20107;-67
2021/04/02 19:25:01;;;;;;;16.38;4.30;;;36.00;9.00;;;;;;5077550;28;20083;-66
2021/04/02 19:27:28;;;;;;;15.68;4.40;;;36.30;9.50;;;;;;5094367;28;20078;-66
2021/04/02 19:29:57;;;;;;;13.57;4.10;;;36.50;11.10;;;;;;5076108;28;20101;-67
2021/04/02 19:32:25;;;;;;;12.18;3.72;;;36.80;9.80;;;;;;5093918;28;20108;-66
2021/04/02 19:34:52;;;;;;;16.95;3.53;;;37.00;9.70;;;;;;5078166;28;20069;-68
2021/04/02 19:37:20;;;;;;;14.85;3.53;;;36.40;8.80;;;;;;5094166;28;20084;-67
2021/04/02 19:39:47;;;;;;;13.18;4.72;;;36.70;9.80;;;;;;5074346;28;20160;-67
2021/04/02 19:42:14;;;;;;;23.42;4.10;;;36.90;10.30;;;;;;5076537;28;20183;-66
2021/04/02 19:44:40;;;;;;;15.73;4.50;;;37.10;10.60;;;;;;5096656;28;20095;-67
2021/04/02 19:47:07;;;;;;;18.05;4.28;;;36.80;8.50;;;;;;5077045;28;20114;-67
2021/04/02 19:49:33;;;;;;;15.45;3.85;;;36.80;9.30;;;;;;5100122;28;20096;-66
2021/04/02 19:52:00;;;;;;;12.75;3.90;;;36.90;8.90;;;;;;5091586;28;20099;-67
2021/04/02 19:54:27;;;;;;;10.30;3.15;;;37.00;9.60;;;;;;5077665;28;20102;-67
2021/04/02 19:56:54;;;;;;;12.73;3.25;;;37.20;8.40;;;;;;5097048;28;20076;-66
2021/04/02 19:59:20;;;;;;;11.80;3.10;;;37.10;9.40;;;;;;5082630;28;20075;-67
2021/04/02 20:01:47;;;;;;;14.65;3.58;;;37.30;8.30;;;;;;5080270;28;20077;-66
2021/04/02 20:04:13;;;;;;;11.60;3.30;;;36.70;8.80;;;;;;5100310;28;20075;-67
2021/04/02 20:06:40;;;;;;;16.63;3.42;;;36.80;10.30;;;;;;5101405;28;20477;-67
2021/04/02 20:09:06;;;;;;;7.88;3.20;;;37.10;9.20;;;;;;5095166;28;20065;-66
2021/04/02 20:11:33;;;;;;;9.90;3.67;;;37.10;8.90;;;;;;5098246;28;20159;-65
2021/04/02 20:14:00;;;;;;;9.73;3.15;;;37.10;10.10;;;;;;5102854;28;20072;-62
2021/04/02 20:16:26;;;;;;;24.13;3.65;;;36.90;9.70;;;;;;5100077;28;21750;-65
2021/04/02 20:18:53;;;;;;;11.80;3.35;;;36.60;8.90;;;;;;5101518;28;20095;-63
2021/04/02 20:21:19;;;;;;;14.23;3.85;;;36.90;9.30;;;;;;5098584;28;20594;-64
2021/04/02 20:23:46;;;;;;;12.32;2.97;;;36.80;9.40;;;;;;5103349;28;20584;-64
2021/04/02 20:26:12;;;;;;;22.38;3.65;;;36.70;9.20;;;;;;5095211;28;20100;-63
2021/04/02 20:28:39;;;;;;;10.68;3.10;;;36.90;10.10;;;;;;5100532;28;20084;-63
2021/04/02 20:31:06;;;;;;;13.27;3.05;;;36.90;8.20;;;;;;5100158;28;20093;-65
2021/04/02 20:33:34;;;;;;;12.75;3.17;;;37.10;9.50;;;;;;5102403;28;20072;-64
2021/04/02 20:36:00;;;;;;;12.90;3.28;;;37.20;9.20;;;;;;5081113;28;20428;-65
2021/04/02 20:38:28;;;;;;;15.65;2.90;;;37.30;8.50;;;;;;5098210;28;20213;-64
2021/04/02 20:40:57;;;;;;;15.18;2.85;;;37.50;8.10;;;;;;5096320;28;20081;-64
2021/04/02 20:43:24;;;;;;;12.05;2.50;;;37.60;8.40;;;;;;5098184;28;20073;-65
2021/04/02 20:45:52;;;;;;;5.97;2.10;;;37.60;7.80;;;;;;5082326;28;20073;-63
2021/04/02 20:48:19;;;;;;;10.15;2.80;;;37.50;9.10;;;;;;5095710;28;20088;-65
2021/04/02 20:50:46;;;;;;;10.82;2.25;;;37.70;17.60;;;;;;5099182;28;20223;-65
2021/04/02 20:53:14;;;;;;;18.40;2.70;;;37.20;8.20;;;;;;5079489;28;20540;-66
2021/04/02 20:55:40;;;;;;;9.75;2.50;;;37.20;8.40;;;;;;5097724;28;20141;-64
2021/04/02 20:58:07;;;;;;;9.57;2.60;;;37.40;8.80;;;;;;5100990;28;20195;-62
2021/04/02 21:00:36;;;;;;;7.38;2.33;;;37.60;7.50;;;;;;5100605;28;20195;-62
2021/04/02 21:03:04;;;;;;;14.48;2.60;;;37.60;7.50;;;;;;5097103;28;20741;-62
2021/04/02 21:05:32;;;;;;;8.55;2.10;;;36.90;8.10;;;;;;5098131;28;20586;-64
2021/04/02 21:08:00;;;;;;;9.80;2.17;;;37.30;8.20;;;;;;5077240;28;20100;-64
2021/04/02 21:10:28;;;;;;;11.10;2.33;;;37.40;7.30;;;;;;5095757;28;20806;-65
2021/04/02 21:12:56;;;;;;;9.57;2.30;;;37.70;7.40;;;;;;5096153;28;20438;-64
2021/04/02 21:15:23;;;;;;;7.25;1.95;;;37.70;7.80;;;;;;5079820;28;20091;-65
2021/04/02 21:17:50;;;;;;;5.40;1.65;;;37.60;7.50;;;;;;5095603;28;20540;-65
2021/04/02 21:20:20;;;;;;;11.30;2.03;;;37.60;8.40;;;;;;5094075;28;20136;-66
2021/04/02 21:22:47;;;;;;;10.25;2.67;;;37.70;8.90;;;;;;5096138;28;20111;-66
2021/04/02 21:25:15;;;;;;;7.20;1.60;;;37.70;8.90;;;;;;5097990;28;20076;-65
2021/04/02 21:27:43;;;;;;;11.05;2.40;;;37.70;7.60;;;;;;5091771;28;20065;-65
2021/04/02 21:30:12;;;;;;;5.03;1.75;;;37.60;8.60;;;;;;5091965;28;20130;-65
2021/04/02 21:32:40;;;;;;;15.90;5.55;;;37.50;8.50;;;;;;5092648;28;20196;-65
2021/04/02 21:35:09;;;;;;;7.63;1.85;;;37.70;7.80;;;;;;5079312;28;20181;-65
2021/04/02 21:37:37;;;;;;;3.53;1.90;;;37.60;8.00;;;;;;5094097;28;20155;-64
2021/04/02 21:40:09;;;;;;;8.63;2.83;;;37.50;8.00;;;;;;5095806;28;20077;-64
2021/04/02 21:42:37;;;;;;;4.30;1.70;;;37.70;8.20;;;;;;5089512;28;20428;-64
2021/04/02 21:45:06;;;;;;;8.57;1.65;;;37.70;7.80;;;;;;5093691;28;20104;-65
2021/04/02 21:47:34;;;;;;;11.63;2.10;;;38.00;20.90;;;;;;5094774;28;20167;-66
2021/04/02 21:50:00;;;;;;;4.78;1.77;;;38.00;8.20;;;;;;5060402;28;20049;-64
2021/04/02 21:52:27;;;;;;;8.02;1.88;;;38.10;8.10;;;;;;5090913;28;20096;-66
2021/04/02 21:54:53;;;;;;;4.40;1.77;;;38.10;7.10;;;;;;5091935;28;20069;-61
2021/04/02 21:57:20;;;;;;;3.97;1.30;;;38.20;7.50;;;;;;5092421;28;20076;-63
2021/04/02 21:59:47;;;;;;;5.65;1.45;;;38.10;7.10;;;;;;5096428;28;20081;-67
2021/04/02 22:02:14;;;;;;;7.70;2.03;;;38.30;27.80;;;;;;5093893;28;20100;-61
2021/04/02 22:04:41;;;;;;;3.20;1.40;;;38.40;8.00;;;;;;5076777;28;20597;-60
2021/04/02 22:07:07;;;;;;;9.00;1.80;;;38.30;7.20;;;;;;5095237;28;20086;-62
2021/04/02 22:09:34;;;;;;;4.32;1.58;;;38.40;7.50;;;;;;5094832;28;20302;-59
2021/04/02 22:12:01;;;;;;;5.88;1.50;;;;;;;;;;5096584;28;20540;-60
2021/04/02 22:14:30;;;;;;;6.00;2.03;;;37.90;6.90;;;;;;5093746;28;20028;-58
2021/04/02 22:16:56;;;;;;;3.63;1.70;;;37.80;7.50;;;;;;5099427;28;20566;-59
2021/04/02 22:19:24;;;;;;;8.23;1.55;;;37.40;7.70;;;;;;5064707;28;20474;-58
2021/04/02 22:21:51;;;;;;;4.63;1.58;;;;;;;;;;5079125;28;20482;-58
2021/04/02 22:24:18;;;;;;;4.05;1.40;;;37.70;7.10;;;;;;5096372;28;20044;-59
2021/04/02 22:26:45;;;;;;;4.85;1.90;;;38.10;24.40;;;;;;5092122;28;20092;-62
2021/04/02 22:29:12;;;;;;;6.65;1.48;;;37.90;7.70;;;;;;5090124;28;20411;-61
2021/04/02 22:31:39;;;;;;;4.70;1.50;;;38.00;7.40;;;;;;5094897;28;20393;-60
2021/04/02 22:34:05;;;;;;;3.85;1.40;;;38.00;7.30;;;;;;5091940;28;20097;-61
2021/04/02 22:36:33;;;;;;;4.65;1.67;;;38.00;7.90;;;;;;5091970;28;20080;-61
2021/04/02 22:39:00;;;;;;;5.07;1.70;;;38.00;7.30;;;;;;5090805;28;20077;-61
2021/04/02 22:41:28;;;;;;;11.07;1.90;;;38.00;8.00;;;;;;5089662;28;20515;-61
2021/04/02 22:43:55;;;;;;;7.18;1.80;;;38.00;8.60;;;;;;5096456;28;20171;-60
2021/04/02 22:46:22;;;;;;;7.88;2.00;;;38.00;8.10;;;;;;5090206;28;20137;-61